createdAt,value
2018-05-24T00:01:23.882Z,8.33
2018-05-24T00:03:52.066Z,8.53
2018-05-24T00:06:19.473Z,8.77
2018-05-24T00:08:46.887Z,8.40
2018-05-24T00:11:14.287Z,8.47
2018-05-24T00:13:41.696Z,9.27
2018-05-24T00:16:09.103Z,10.27
2018-05-24T00:18:36.519Z,9.73
2018-05-24T00:21:03.919Z,10.50
2018-05-24T00:23:32.102Z,10.93
2018-05-24T00:25:59.519Z,10.63
2018-05-24T00:28:27.698Z,11.03
2018-05-24T00:30:55.114Z,10.77
2018-05-24T00:33:22.527Z,10.93
2018-05-24T00:35:49.935Z,11.13
2018-05-24T00:38:17.347Z,11.90
2018-05-24T00:40:45.522Z,12.30
2018-05-24T00:43:12.944Z,11.73
2018-05-24T00:45:41.128Z,11.97
2018-05-24T00:48:08.550Z,13.00
2018-05-24T00:50:36.718Z,12.10
2018-05-24T00:53:04.143Z,12.33
2018-05-24T00:55:40.535Z,13.20
2018-05-24T00:58:07.983Z,13.70
2018-05-24T01:00:35.395Z,12.13
2018-05-24T01:03:02.803Z,12.67
2018-05-24T01:05:30.227Z,12.60
2018-05-24T01:07:57.639Z,12.50
2018-05-24T01:10:25.840Z,12.47
2018-05-24T01:12:54.836Z,12.40
2018-05-24T01:15:22.167Z,12.93
2018-05-24T01:17:49.584Z,12.53
2018-05-24T01:20:16.996Z,13.67
2018-05-24T01:22:44.415Z,12.93
2018-05-24T01:25:12.589Z,13.40
2018-05-24T01:27:40.003Z,13.73
2018-05-24T01:30:08.187Z,12.73
2018-05-24T01:32:35.603Z,13.57
2018-05-24T01:35:03.775Z,13.77
2018-05-24T01:37:43.080Z,15.17
2018-05-24T01:40:11.254Z,14.60
2018-05-24T01:42:38.675Z,15.63
2018-05-24T01:45:06.079Z,15.03
2018-05-24T01:47:33.499Z,14.00
2018-05-24T01:50:00.921Z,15.43
2018-05-24T01:52:29.103Z,16.33
2018-05-24T01:54:56.528Z,15.33
2018-05-24T01:57:23.945Z,15.90
2018-05-24T01:59:51.355Z,15.00
2018-05-24T02:02:18.883Z,15.10
2018-05-24T02:04:46.290Z,14.93
2018-05-24T02:07:13.731Z,14.87
2018-05-24T02:09:41.159Z,15.93
2018-05-24T02:12:09.352Z,15.47
2018-05-24T02:14:36.775Z,15.60
2018-05-24T02:17:04.187Z,15.67
2018-05-24T02:19:31.603Z,15.63
2018-05-24T02:21:59.027Z,16.07
2018-05-24T02:24:26.451Z,16.00
2018-05-24T02:26:53.863Z,15.83
2018-05-24T02:29:22.047Z,16.17
2018-05-24T02:31:49.467Z,14.77
2018-05-24T02:34:17.643Z,16.43
2018-05-24T02:36:45.063Z,16.23
2018-05-24T02:39:12.468Z,15.80
2018-05-24T02:41:39.896Z,15.60
2018-05-24T02:44:07.316Z,16.47
2018-05-24T02:46:34.711Z,17.30
2018-05-24T02:49:02.124Z,15.10
2018-05-24T02:51:29.548Z,16.40
2018-05-24T02:53:56.959Z,15.50
2018-05-24T02:56:25.130Z,16.90
2018-05-24T02:58:52.555Z,17.13
2018-05-24T03:01:20.744Z,18.33
2018-05-24T03:03:48.151Z,17.00
2018-05-24T03:06:16.428Z,18.17
2018-05-24T03:08:43.743Z,18.70
2018-05-24T03:11:11.164Z,17.63
2018-05-24T03:13:38.571Z,18.60
2018-05-24T03:16:05.983Z,18.50
2018-05-24T03:18:34.159Z,18.53
2018-05-24T03:21:01.580Z,19.37
2018-05-24T03:23:29.768Z,19.40
2018-05-24T03:25:57.183Z,19.17
2018-05-24T03:28:24.587Z,18.97
2018-05-24T03:30:52.000Z,19.77
2018-05-24T03:33:19.411Z,19.60
2018-05-24T03:35:46.883Z,17.27
2018-05-24T03:38:14.303Z,18.00
2018-05-24T03:40:41.715Z,17.37
2018-05-24T03:43:09.904Z,18.17
2018-05-24T03:45:37.318Z,16.33
2018-05-24T03:48:05.487Z,16.63
2018-05-24T03:50:33.683Z,16.63
2018-05-24T03:53:01.087Z,16.53
2018-05-24T03:55:29.279Z,16.27
2018-05-24T03:57:56.686Z,15.73
2018-05-24T04:00:36.779Z,16.40
2018-05-24T04:03:16.215Z,16.80
2018-05-24T04:05:43.705Z,16.37
2018-05-24T04:08:11.050Z,16.47
2018-05-24T04:10:38.475Z,17.90
2018-05-24T04:13:05.886Z,18.73
2018-05-24T04:15:33.298Z,18.47
2018-05-24T04:18:00.703Z,19.83
2018-05-24T04:20:29.791Z,19.63
2018-05-24T04:22:57.228Z,19.60
2018-05-24T04:25:24.651Z,20.67
2018-05-24T04:27:52.831Z,20.87
2018-05-24T04:30:20.246Z,21.80
2018-05-24T04:32:48.423Z,21.40
2018-05-24T04:35:15.838Z,22.13
2018-05-24T04:37:44.024Z,22.50
2018-05-24T04:40:11.444Z,22.23
2018-05-24T04:42:39.627Z,20.97
2018-05-24T04:45:07.047Z,22.30
2018-05-24T04:47:34.463Z,20.43
2018-05-24T04:50:01.881Z,21.43
2018-05-24T04:52:29.314Z,22.07
2018-05-24T04:54:56.727Z,20.80
2018-05-24T04:57:24.906Z,19.73
2018-05-24T04:59:52.330Z,19.77
2018-05-24T05:02:20.503Z,19.70
2018-05-24T05:04:47.914Z,19.97
2018-05-24T05:07:16.099Z,21.00
2018-05-24T05:09:43.507Z,20.63
2018-05-24T05:12:11.682Z,21.17
2018-05-24T05:14:39.102Z,19.43
2018-05-24T05:17:06.519Z,18.13
2018-05-24T05:19:34.105Z,18.30
2018-05-24T05:22:01.458Z,18.37
2018-05-24T05:24:29.626Z,18.13
2018-05-24T05:26:57.035Z,18.37
2018-05-24T05:29:25.215Z,18.33
2018-05-24T05:31:52.624Z,18.80
2018-05-24T05:34:20.032Z,20.67
2018-05-24T05:36:47.442Z,20.37
2018-05-24T05:39:14.857Z,20.07
2018-05-24T05:41:42.263Z,21.33
2018-05-24T05:44:09.676Z,21.27
2018-05-24T05:46:37.083Z,21.63
2018-05-24T05:49:05.263Z,21.67
2018-05-24T05:51:32.686Z,21.13
2018-05-24T05:54:00.875Z,21.30
2018-05-24T05:56:28.271Z,20.97
2018-05-24T05:58:55.683Z,22.70
2018-05-24T06:01:23.095Z,22.80
2018-05-24T06:03:50.502Z,23.00
2018-05-24T06:06:18.679Z,22.60
2018-05-24T06:08:46.859Z,21.70
2018-05-24T06:11:14.287Z,20.53
2018-05-24T06:13:42.462Z,20.57
2018-05-24T06:16:09.871Z,19.30
2018-05-24T06:18:38.051Z,19.17
2018-05-24T06:21:05.459Z,18.50
2018-05-24T06:23:33.647Z,19.23
2018-05-24T06:26:01.063Z,18.80
2018-05-24T06:28:29.280Z,18.47
2018-05-24T06:30:56.655Z,18.70
2018-05-24T06:33:24.121Z,19.17
2018-05-24T06:35:51.475Z,18.53
2018-05-24T06:38:18.916Z,16.97
2018-05-24T06:40:46.370Z,17.87
2018-05-24T06:43:13.792Z,17.07
2018-05-24T06:45:41.959Z,16.57
2018-05-24T06:48:09.372Z,17.70
2018-05-24T06:50:36.767Z,17.47
2018-05-24T06:53:04.186Z,16.20
2018-05-24T06:55:31.599Z,15.80
2018-05-24T06:57:59.778Z,16.93
2018-05-24T07:00:27.184Z,16.20
2018-05-24T07:02:54.598Z,16.90
2018-05-24T07:05:22.002Z,17.07
2018-05-24T07:07:49.414Z,16.80
2018-05-24T07:10:16.827Z,15.70
2018-05-24T07:12:44.245Z,16.10
2018-05-24T07:15:11.647Z,16.47
2018-05-24T07:17:39.839Z,17.93
2018-05-24T07:20:07.244Z,18.30
2018-05-24T07:22:35.426Z,18.23
2018-05-24T07:25:02.831Z,18.75
2018-05-24T07:27:30.239Z,17.30
2018-05-24T07:29:57.671Z,17.70
2018-05-24T07:32:25.087Z,17.60
2018-05-24T07:34:52.495Z,17.10
2018-05-24T07:37:19.902Z,16.90
2018-05-24T08:46:02.212Z,16.35
2018-05-24T08:48:29.614Z,16.20
2018-05-24T08:50:57.800Z,15.83
2018-05-24T09:00:46.847Z,16.27
2018-05-24T09:03:14.250Z,16.53
2018-05-24T09:05:41.675Z,16.43
2018-05-24T09:08:09.092Z,16.07
2018-05-24T09:10:36.501Z,15.93
2018-05-24T09:15:31.637Z,15.75
2018-05-24T09:17:59.046Z,14.40
2018-05-24T09:20:26.463Z,17.00
2018-05-24T09:22:54.644Z,16.40
2018-05-24T09:32:43.695Z,15.70
2018-05-24T09:40:05.039Z,16.20
2018-05-24T09:42:32.451Z,15.97
2018-05-24T09:44:59.863Z,16.43
2018-05-24T09:47:28.048Z,15.77
2018-05-24T09:49:55.463Z,20.03
2018-05-24T09:52:23.638Z,19.13
2018-05-24T09:59:45.779Z,16.50
2018-05-24T10:09:34.840Z,17.40
2018-05-24T10:12:02.252Z,16.50
2018-05-24T10:14:29.667Z,16.77
2018-05-24T10:19:24.806Z,16.60
2018-05-24T10:21:52.216Z,16.00
2018-05-24T10:24:19.627Z,15.57
2018-05-24T10:26:47.043Z,15.73
2018-05-24T10:36:36.878Z,14.70
2018-05-24T10:39:04.970Z,13.63
2018-05-24T10:41:32.486Z,13.80
2018-05-24T10:58:42.432Z,12.35
2018-05-24T11:01:09.843Z,13.10
2018-05-24T11:08:31.179Z,12.43
2018-05-24T11:13:25.553Z,12.15
2018-05-24T11:15:52.956Z,11.60
2018-05-24T11:18:21.127Z,11.05
2018-05-24T11:23:15.523Z,10.50
2018-05-24T11:25:42.923Z,10.25
2018-05-24T11:28:11.102Z,10.23
2018-05-24T11:30:38.507Z,10.50
2018-05-24T11:33:06.682Z,9.32
2018-05-24T11:38:01.819Z,9.40
2018-05-24T11:40:29.234Z,8.30
2018-05-24T11:42:56.635Z,8.30
2018-05-24T11:45:24.045Z,7.57
2018-05-24T11:47:51.443Z,6.75
2018-05-24T11:50:18.907Z,5.80
2018-05-24T11:52:46.318Z,6.05
2018-05-24T11:57:41.455Z,7.90
2018-05-24T12:00:08.863Z,7.18
2018-05-24T12:02:36.263Z,7.43
2018-05-24T12:05:03.671Z,6.65
2018-05-24T12:07:31.075Z,6.15
2018-05-24T12:14:54.739Z,11.80
2018-05-24T12:27:09.983Z,6.17
2018-05-24T12:32:05.118Z,7.00
2018-05-24T12:34:32.524Z,8.47
2018-05-24T12:37:00.710Z,10.73
2018-05-24T12:39:28.139Z,24.73
2018-05-24T12:41:55.638Z,24.70
2018-05-24T12:44:23.731Z,34.10
2018-05-24T12:46:51.143Z,36.70
2018-05-24T12:49:18.564Z,33.57
2018-05-24T12:54:13.745Z,21.43
2018-05-24T12:56:41.128Z,25.03
2018-05-24T12:59:09.309Z,27.27
2018-05-24T13:01:36.719Z,28.00
2018-05-24T13:04:04.150Z,30.37
2018-05-24T13:06:31.564Z,22.63
2018-05-24T13:08:58.975Z,23.13
2018-05-24T13:11:26.383Z,19.87
2018-05-24T13:13:54.567Z,21.60
2018-05-24T13:16:21.984Z,24.60
2018-05-24T13:18:49.394Z,23.20
2018-05-24T13:21:16.818Z,19.87
2018-05-24T13:23:44.226Z,22.33
2018-05-24T13:26:12.402Z,16.73
2018-05-24T13:28:39.821Z,15.70
2018-05-24T13:31:07.993Z,15.30
2018-05-24T13:33:35.403Z,14.73
2018-05-24T13:36:02.820Z,13.70
2018-05-24T13:38:30.232Z,16.60
2018-05-24T13:40:57.643Z,15.87
2018-05-24T13:43:25.814Z,14.23
2018-05-24T13:45:53.239Z,13.53
2018-05-24T13:48:21.407Z,12.90
2018-05-24T13:50:48.824Z,11.20
2018-05-24T13:53:17.004Z,12.03
2018-05-24T13:55:45.189Z,10.47
2018-05-24T13:58:12.587Z,9.90
2018-05-24T14:00:40.780Z,10.33
2018-05-24T14:03:08.191Z,9.60
2018-05-24T14:05:36.363Z,8.48
2018-05-24T14:08:04.539Z,8.90
2018-05-24T14:10:31.947Z,7.93
2018-05-24T14:12:59.355Z,6.72
2018-05-24T14:15:26.762Z,6.85
2018-05-24T14:17:54.176Z,6.25
2018-05-24T14:20:22.347Z,7.05
2018-05-24T14:22:49.750Z,6.32
2018-05-24T14:25:17.172Z,6.32
2018-05-24T14:27:44.574Z,6.20
2018-05-24T14:30:11.982Z,6.15
2018-05-24T14:32:39.382Z,6.55
2018-05-24T14:35:06.786Z,5.95
2018-05-24T14:37:34.994Z,5.60
2018-05-24T14:40:02.411Z,5.90
2018-05-24T14:42:29.818Z,4.95
2018-05-24T14:44:58.050Z,5.03
2018-05-24T14:47:26.193Z,4.80
2018-05-24T14:49:53.570Z,5.15
2018-05-24T14:52:20.983Z,4.87
2018-05-24T14:54:48.391Z,4.95
2018-05-24T14:57:15.801Z,4.12
2018-05-24T14:59:43.967Z,3.80
2018-05-24T15:02:12.149Z,3.90
2018-05-24T15:04:39.551Z,4.30
2018-05-24T15:07:06.956Z,3.72
2018-05-24T15:09:34.363Z,3.78
2018-05-24T15:12:01.776Z,3.62
2018-05-24T15:14:29.197Z,3.87
2018-05-24T15:16:56.603Z,4.45
2018-05-24T15:19:24.015Z,4.00
2018-05-24T15:21:52.187Z,4.12
2018-05-24T15:24:19.592Z,4.07
2018-05-24T15:26:46.995Z,3.33
2018-05-24T15:29:14.407Z,4.03
2018-05-24T15:31:41.819Z,3.57
2018-05-24T15:34:09.220Z,3.70
2018-05-24T15:36:36.622Z,3.67
2018-05-24T15:39:04.835Z,3.47
2018-05-24T15:41:32.225Z,3.23
2018-05-24T15:44:00.411Z,3.70
2018-05-24T15:46:27.811Z,3.83
2018-05-24T15:48:56.015Z,3.90
2018-05-24T15:51:23.386Z,3.77
2018-05-24T15:53:50.802Z,3.27
2018-05-24T15:56:18.207Z,3.00
2018-05-24T15:58:46.383Z,3.40
2018-05-24T16:01:13.783Z,3.60
2018-05-24T16:03:41.190Z,3.83
2018-05-24T16:06:08.591Z,3.40
2018-05-24T16:08:36.010Z,3.60
2018-05-24T16:11:03.398Z,3.80
2018-05-24T16:13:30.807Z,3.80
2018-05-24T16:15:58.974Z,4.30
2018-05-24T16:18:26.399Z,4.70
2018-05-24T16:20:53.800Z,4.60
2018-05-24T16:23:21.211Z,5.33
2018-05-24T16:25:48.621Z,5.53
2018-05-24T16:28:16.791Z,7.27
2018-05-24T16:30:44.958Z,7.63
2018-05-24T16:33:12.368Z,8.17
2018-05-24T16:35:40.535Z,7.70
2018-05-24T16:38:08.719Z,7.90
2018-05-24T16:40:36.184Z,8.00
2018-05-24T16:43:04.328Z,7.20
2018-05-24T16:45:31.724Z,7.13
2018-05-24T16:47:59.132Z,6.90
2018-05-24T16:50:26.535Z,7.33
2018-05-24T16:52:53.945Z,6.67
2018-05-24T16:55:21.356Z,6.90
2018-05-24T16:57:48.764Z,6.17
2018-05-24T17:00:16.163Z,4.80
2018-05-24T17:02:43.563Z,4.00
2018-05-24T17:05:10.967Z,4.10
2018-05-24T17:07:39.160Z,4.83
2018-05-24T17:10:06.571Z,4.23
2018-05-24T17:12:34.783Z,4.90
2018-05-24T17:15:02.165Z,5.30
2018-05-24T17:17:29.587Z,5.13
2018-05-24T17:19:57.759Z,5.20
2018-05-24T17:22:25.938Z,5.53
2018-05-24T17:24:53.359Z,7.37
2018-05-24T17:27:21.526Z,5.20
2018-05-24T17:29:49.703Z,4.87
2018-05-24T17:32:17.106Z,4.43
2018-05-24T17:34:44.510Z,3.93
2018-05-24T17:37:11.924Z,3.80
2018-05-24T17:39:39.323Z,3.50
2018-05-24T17:42:06.732Z,3.80
2018-05-24T17:54:23.517Z,6.80
2018-05-24T17:56:50.941Z,6.40
2018-05-24T18:11:33.266Z,5.20
2018-05-24T18:21:22.319Z,4.27
2018-05-24T18:23:49.739Z,4.43
2018-05-24T18:26:17.145Z,4.33
2018-05-24T18:28:44.555Z,4.30
2018-05-24T18:31:11.963Z,4.40
2018-05-24T18:33:39.363Z,4.23
2018-05-24T18:36:06.844Z,3.70
2018-05-24T18:38:34.188Z,3.63
2018-05-24T18:43:28.562Z,4.27
2018-05-24T18:45:55.988Z,3.70
2018-05-24T18:48:23.395Z,4.10
2018-05-24T18:53:18.535Z,4.20
2018-05-24T18:55:45.923Z,4.40
2018-05-24T19:03:07.262Z,3.35
2018-05-24T19:05:34.673Z,3.20
2018-05-24T19:08:02.090Z,3.03
2018-05-24T19:10:29.500Z,3.05
2018-05-24T19:12:56.916Z,3.45
2018-05-24T19:15:25.088Z,2.33
2018-05-24T19:17:52.507Z,2.80
2018-05-24T19:20:20.719Z,2.70
2018-05-24T19:22:48.135Z,2.50
2018-05-24T19:25:15.555Z,2.50
2018-05-24T19:27:42.958Z,2.77
2018-05-24T19:30:10.370Z,2.93
2018-05-24T19:32:37.775Z,2.90
2018-05-24T19:35:05.175Z,2.77
2018-05-24T19:37:32.648Z,2.60
2018-05-24T19:40:00.032Z,2.77
2018-05-24T19:42:28.214Z,3.00
2018-05-24T19:44:55.611Z,3.07
2018-05-24T19:47:23.336Z,3.27
2018-05-24T19:49:50.759Z,2.77
2018-05-24T19:52:18.174Z,3.20
2018-05-24T19:54:45.581Z,3.27
2018-05-24T19:57:13.750Z,3.47
2018-05-24T19:59:41.169Z,3.57
2018-05-24T20:02:08.564Z,3.20
2018-05-24T20:04:35.978Z,3.37
2018-05-24T20:07:03.383Z,3.43
2018-05-24T20:09:30.803Z,3.97
2018-05-24T20:11:58.987Z,3.47
2018-05-24T20:14:27.165Z,3.77
2018-05-24T20:16:54.558Z,3.77
2018-05-24T20:19:21.974Z,3.67
2018-05-24T20:21:49.370Z,4.00
2018-05-24T20:24:16.805Z,3.97
2018-05-24T20:26:44.206Z,4.23
2018-05-24T20:29:12.388Z,3.83
2018-05-24T20:31:40.557Z,4.37
2018-05-24T20:34:08.746Z,4.70
2018-05-24T20:36:36.903Z,4.73
2018-05-24T20:39:07.036Z,4.20
2018-05-24T20:41:34.454Z,4.07
2018-05-24T20:44:01.823Z,4.40
2018-05-24T20:46:29.216Z,4.63
2018-05-24T20:48:57.395Z,4.73
2018-05-24T20:51:24.803Z,4.53
2018-05-24T20:53:52.210Z,5.23
2018-05-24T20:56:19.683Z,4.40
2018-05-24T20:58:47.804Z,4.60
2018-05-24T21:01:15.203Z,4.03
2018-05-24T21:03:42.603Z,3.90
2018-05-24T21:06:10.007Z,3.90
2018-05-24T21:08:37.414Z,3.90
2018-05-24T21:11:04.826Z,4.13
2018-05-24T21:13:32.245Z,4.13
2018-05-24T21:15:59.667Z,3.60
2018-05-24T21:18:27.088Z,4.10
2018-05-24T21:20:54.562Z,4.63
2018-05-24T21:23:21.974Z,5.10
2018-05-24T21:25:50.145Z,4.93
2018-05-24T21:28:17.554Z,7.40
2018-05-24T21:30:44.971Z,6.93
2018-05-24T21:33:12.367Z,7.27
2018-05-24T21:35:39.783Z,7.00
2018-05-24T21:38:07.207Z,7.57
2018-05-24T21:40:34.602Z,9.20
2018-05-24T21:43:02.024Z,8.83
2018-05-24T21:45:30.268Z,9.43
2018-05-24T21:47:57.638Z,10.30
2018-05-24T21:50:25.530Z,10.20
2018-05-24T21:52:52.915Z,11.40
2018-05-24T21:55:21.103Z,11.70
2018-05-24T21:57:48.499Z,10.37
2018-05-24T22:00:15.931Z,11.17
2018-05-24T22:02:43.333Z,11.90
2018-05-24T22:05:10.775Z,12.53
2018-05-24T22:07:38.194Z,12.27
2018-05-24T22:10:05.607Z,12.10
2018-05-24T22:12:33.790Z,12.60
2018-05-24T22:15:01.216Z,11.93
2018-05-24T22:17:29.395Z,11.70
2018-05-24T22:19:56.806Z,12.07
2018-05-24T22:22:24.986Z,12.73
2018-05-24T22:24:53.175Z,12.23
2018-05-24T22:27:20.599Z,12.57
2018-05-24T22:29:48.035Z,13.43
2018-05-24T22:32:16.204Z,13.23
2018-05-24T22:34:43.616Z,12.47
2018-05-24T22:37:11.807Z,13.03
2018-05-24T22:39:39.246Z,12.63
2018-05-24T22:42:07.407Z,14.00
2018-05-24T22:44:34.810Z,15.87
2018-05-24T22:47:02.998Z,15.83
2018-05-24T22:49:30.399Z,15.07
2018-05-24T22:51:57.831Z,12.93
2018-05-24T22:54:25.231Z,13.73
2018-05-24T22:56:52.655Z,12.70
2018-05-24T22:59:20.063Z,12.93
2018-05-24T23:01:47.478Z,14.27
2018-05-24T23:04:14.913Z,14.07
2018-05-24T23:06:42.332Z,14.73
2018-05-24T23:09:09.740Z,15.37
2018-05-24T23:11:37.959Z,13.77
2018-05-24T23:14:05.371Z,13.47
2018-05-24T23:16:32.783Z,13.67
2018-05-24T23:19:00.227Z,11.23
2018-05-24T23:21:28.902Z,11.60
2018-05-24T23:23:57.066Z,11.93
2018-05-24T23:26:25.247Z,10.17
2018-05-24T23:28:52.662Z,11.00
2018-05-24T23:31:20.847Z,10.27
2018-05-24T23:33:48.263Z,11.00
2018-05-24T23:36:16.459Z,11.27
2018-05-24T23:38:43.878Z,11.47
2018-05-24T23:41:11.315Z,10.77
2018-05-24T23:43:38.699Z,10.27
2018-05-24T23:46:06.119Z,11.53
2018-05-24T23:48:33.539Z,10.97
2018-05-24T23:51:00.946Z,10.73
2018-05-24T23:53:28.373Z,10.87
2018-05-24T23:55:55.786Z,9.60
2018-05-24T23:58:23.207Z,10.07
